Time;durP1;ratioP1;P1;durP2;ratioP2;P2;SDS_P1;SDS_P2;PMS_P1;PMS_P2;Temp;Humidity;BMP_temperature;BMP_pressure;BME280_temperature;BME280_humidity;BME280_pressure;Samples;Min_cycle;Max_cycle;Signal;HPM_P1;HPM_P2
2024/04/15 00:01:54;;;;;;;3.53;1.10;;;21.50;72.20;;;;;;5500631;26;19997;-60
2024/04/15 00:04:20;;;;;;;3.60;1.20;;;21.50;72.20;;;;;;5499992;26;19994;-60
2024/04/15 00:06:45;;;;;;;3.80;1.20;;;21.40;72.20;;;;;;5501586;26;20009;-61
2024/04/15 00:09:11;;;;;;;3.08;1.10;;;21.50;72.30;;;;;;5501387;26;20034;-60
2024/04/15 00:11:36;;;;;;;3.58;1.20;;;21.40;72.30;;;;;;5503174;26;20664;-61
2024/04/15 00:14:02;;;;;;;3.95;1.10;;;21.40;72.30;;;;;;5498208;26;20013;-60
2024/04/15 00:16:28;;;;;;;2.28;1.00;;;21.40;72.30;;;;;;5507930;26;20001;-61
2024/04/15 00:18:53;;;;;;;3.63;1.20;;;21.40;72.40;;;;;;5504720;26;19997;-61
2024/04/15 00:21:19;;;;;;;2.83;0.98;;;21.40;72.40;;;;;;5508298;26;20005;-61
2024/04/15 00:23:44;;;;;;;3.35;1.10;;;21.40;72.40;;;;;;5524520;25;20476;-61
2024/04/15 00:26:10;;;;;;;4.03;1.20;;;21.40;72.40;;;;;;5526412;25;20009;-61
2024/04/15 00:28:36;;;;;;;3.47;1.20;;;21.40;72.40;;;;;;5525234;25;20005;-61
2024/04/15 00:31:01;;;;;;;3.78;1.05;;;21.40;72.40;;;;;;5537821;25;20008;-61
2024/04/15 00:33:27;;;;;;;3.75;1.10;;;21.40;72.40;;;;;;5539274;25;20494;-61
2024/04/15 00:35:52;;;;;;;2.90;1.00;;;21.40;72.50;;;;;;5536055;25;19998;-61
2024/04/15 00:38:18;;;;;;;3.65;1.10;;;21.40;72.50;;;;;;5539119;25;20009;-61
2024/04/15 00:40:44;;;;;;;5.00;1.17;;;21.40;72.60;;;;;;5531354;25;20016;-61
2024/04/15 00:43:10;;;;;;;3.90;1.10;;;21.40;72.60;;;;;;5525527;25;19993;-61
2024/04/15 00:45:35;;;;;;;4.60;1.10;;;21.40;72.60;;;;;;5534669;25;20008;-61
2024/04/15 00:48:05;;;;;;;4.40;1.30;;;21.40;72.60;;;;;;5531143;25;20370;-61
2024/04/15 00:50:37;;;;;;;3.13;1.27;;;21.30;72.50;;;;;;5530394;25;20013;-61
2024/04/15 00:53:05;;;;;;;4.82;1.17;;;21.30;72.60;;;;;;5528107;25;20258;-61
2024/04/15 00:55:33;;;;;;;2.40;1.00;;;21.30;72.60;;;;;;5542279;25;19994;-61
2024/04/15 00:58:01;;;;;;;4.65;1.30;;;21.30;72.60;;;;;;5531275;25;20013;-61
2024/04/15 01:00:27;;;;;;;3.00;1.20;;;21.30;73.20;;;;;;5537975;25;20002;-61
2024/04/15 01:02:53;;;;;;;3.67;1.20;;;21.30;72.70;;;;;;5533442;25;20012;-61
2024/04/15 01:05:19;;;;;;;4.00;1.10;;;21.30;72.70;;;;;;5521803;25;20064;-61
2024/04/15 01:07:45;;;;;;;4.10;1.20;;;21.30;72.70;;;;;;5527151;25;19993;-61
2024/04/15 01:10:13;;;;;;;5.35;1.13;;;21.30;72.70;;;;;;5515276;25;20008;-61
2024/04/15 01:12:40;;;;;;;5.70;1.23;;;21.30;72.80;;;;;;5528258;25;20445;-61
2024/04/15 01:15:06;;;;;;;3.17;1.02;;;21.30;72.70;;;;;;5521955;25;20425;-61
2024/04/15 01:17:34;;;;;;;4.03;1.10;;;21.30;72.80;;;;;;5526887;25;19998;-61
2024/04/15 01:20:00;;;;;;;4.55;1.30;;;21.20;72.80;;;;;;5522378;25;20006;-61
2024/04/15 01:22:36;;;;;;;4.47;1.30;;;21.20;72.80;;;;;;5520361;25;20017;-61
2024/04/15 01:25:02;;;;;;;2.33;1.00;;;21.20;72.80;;;;;;5526133;25;20001;-61
2024/04/15 01:27:28;;;;;;;2.90;1.00;;;21.20;72.80;;;;;;5526718;25;20012;-61
2024/04/15 01:29:54;;;;;;;4.22;1.25;;;21.20;72.80;;;;;;5529689;25;20012;-61
2024/04/15 01:32:19;;;;;;;3.60;1.30;;;21.20;72.80;;;;;;5535356;25;20091;-61
2024/04/15 01:34:45;;;;;;;4.22;1.23;;;21.20;72.80;;;;;;5526875;25;20001;-61
2024/04/15 01:37:11;;;;;;;2.90;1.10;;;21.20;72.80;;;;;;5525449;25;20077;-61
2024/04/15 01:39:36;;;;;;;4.25;1.23;;;21.20;72.80;;;;;;5531347;25;19998;-61
2024/04/15 01:42:02;;;;;;;4.63;1.30;;;21.20;72.90;;;;;;5533421;25;20042;-61
2024/04/15 01:44:31;;;;;;;2.88;1.08;;;21.20;72.90;;;;;;5533618;25;20008;-60
2024/04/15 01:46:57;;;;;;;3.55;1.10;;;21.20;72.90;;;;;;5527701;25;20328;-61
2024/04/15 01:49:22;;;;;;;4.40;1.08;;;21.20;73.00;;;;;;5537740;25;20004;-61
2024/04/15 01:51:48;;;;;;;5.20;1.20;;;21.20;73.00;;;;;;5527652;25;20067;-60
2024/04/15 01:54:13;;;;;;;2.17;0.98;;;21.10;72.90;;;;;;5525476;25;20440;-61
2024/04/15 01:56:39;;;;;;;2.67;1.02;;;21.10;72.90;;;;;;5530352;25;20004;-61
2024/04/15 01:59:06;;;;;;;3.47;1.10;;;21.10;73.00;;;;;;5530100;25;20007;-61
2024/04/15 02:01:35;;;;;;;2.30;1.10;;;21.10;73.00;;;;;;5512362;25;20002;-61
2024/04/15 02:04:00;;;;;;;3.95;1.17;;;21.10;73.00;;;;;;5525624;25;20002;-61
2024/04/15 02:06:26;;;;;;;3.17;1.10;;;21.10;73.00;;;;;;5523025;25;20325;-61
2024/04/15 02:08:51;;;;;;;4.47;1.40;;;21.10;73.00;;;;;;5518541;25;20082;-61
2024/04/15 02:11:17;;;;;;;3.97;1.20;;;21.10;73.00;;;;;;5501668;25;20055;-61
2024/04/15 02:13:43;;;;;;;2.97;1.10;;;21.10;73.10;;;;;;5511986;25;20007;-61
2024/04/15 02:16:08;;;;;;;2.88;1.10;;;21.10;73.00;;;;;;5504835;26;19998;-61
2024/04/15 02:18:34;;;;;;;4.13;1.20;;;21.10;73.10;;;;;;5504977;25;19998;-61
2024/04/15 02:21:00;;;;;;;4.07;1.20;;;21.10;73.00;;;;;;5512542;25;20336;-61
2024/04/15 02:23:25;;;;;;;4.45;1.10;;;21.00;72.90;;;;;;5506545;25;19994;-61
2024/04/15 02:25:51;;;;;;;4.80;1.30;;;21.10;72.90;;;;;;5510785;25;19997;-61
2024/04/15 02:28:19;;;;;;;3.22;0.95;;;21.00;73.50;;;;;;5499789;26;20322;-61
2024/04/15 02:30:48;;;;;;;2.50;1.00;;;21.10;73.00;;;;;;5508538;25;20559;-61
2024/04/15 02:33:15;;;;;;;4.03;1.10;;;21.00;73.00;;;;;;5508683;25;19998;-61
2024/04/15 02:35:40;;;;;;;3.65;1.20;;;21.00;73.00;;;;;;5512713;25;19994;-60
2024/04/15 02:38:06;;;;;;;5.97;1.30;;;21.00;73.10;;;;;;5498512;26;20005;-61
2024/04/15 02:40:31;;;;;;;3.75;1.35;;;21.00;73.00;;;;;;5496734;26;20001;-61
2024/04/15 02:42:59;;;;;;;4.70;1.38;;;21.00;73.10;;;;;;5515463;25;20004;-60
2024/04/15 02:45:24;;;;;;;2.58;1.15;;;21.00;73.00;;;;;;5496174;26;20010;-60
2024/04/15 02:47:50;;;;;;;5.22;1.38;;;21.00;73.10;;;;;;5518791;25;20449;-60
2024/04/15 02:50:15;;;;;;;3.42;1.20;;;21.00;73.10;;;;;;5522956;25;20002;-60
2024/04/15 02:52:41;;;;;;;3.30;1.10;;;21.00;73.10;;;;;;5514929;25;19996;-60
2024/04/15 02:55:07;;;;;;;4.55;1.10;;;21.00;73.10;;;;;;5526164;25;20064;-60
2024/04/15 02:57:33;;;;;;;4.68;1.27;;;21.00;73.10;;;;;;5529544;25;19997;-60
2024/04/15 03:00:01;;;;;;;3.25;1.08;;;20.90;73.10;;;;;;5496249;26;20013;-61
2024/04/15 03:02:26;;;;;;;4.40;1.20;;;20.90;73.10;;;;;;5505755;25;20005;-61
2024/04/15 03:04:52;;;;;;;3.63;1.08;;;20.90;73.10;;;;;;5504407;26;20005;-61
2024/04/15 03:07:17;;;;;;;4.85;1.20;;;20.90;73.10;;;;;;5532915;25;19997;-61
2024/04/15 03:09:44;;;;;;;3.92;1.20;;;20.90;73.10;;;;;;5525335;25;20013;-61
2024/04/15 03:12:11;;;;;;;3.58;1.20;;;20.90;73.10;;;;;;5523038;25;20012;-62
2024/04/15 03:14:37;;;;;;;4.53;1.17;;;20.90;73.10;;;;;;5502476;26;20073;-61
2024/04/15 03:17:05;;;;;;;3.40;1.23;;;20.90;73.10;;;;;;5511815;25;20144;-61
2024/04/15 03:19:30;;;;;;;3.30;1.15;;;20.90;73.10;;;;;;5505309;25;20481;-61
2024/04/15 03:21:59;;;;;;;3.88;1.20;;;20.90;73.10;;;;;;5509740;25;19998;-61
2024/04/15 03:24:27;;;;;;;3.25;1.10;;;20.90;73.20;;;;;;5515230;25;20001;-61
2024/04/15 03:26:58;;;;;;;4.80;1.10;;;20.90;73.20;;;;;;5509115;25;20325;-61
2024/04/15 03:29:24;;;;;;;3.83;1.13;;;20.80;73.20;;;;;;5514414;25;20470;-62
2024/04/15 03:31:49;;;;;;;3.63;1.20;;;20.80;73.30;;;;;;5497597;26;20006;-61
2024/04/15 03:34:15;;;;;;;3.60;1.10;;;20.80;73.30;;;;;;5504148;25;20027;-61
2024/04/15 03:36:40;;;;;;;4.32;1.10;;;20.80;73.40;;;;;;5513457;25;20050;-61
2024/04/15 03:39:06;;;;;;;5.57;1.48;;;20.80;73.40;;;;;;5521248;25;20026;-61
2024/04/15 03:41:32;;;;;;;3.97;1.10;;;20.80;73.50;;;;;;5517223;25;19998;-61
2024/04/15 03:43:57;;;;;;;3.72;1.13;;;20.80;73.50;;;;;;5525959;25;20072;-61
2024/04/15 03:46:23;;;;;;;3.67;1.20;;;20.80;73.60;;;;;;5536153;25;19993;-61
2024/04/15 03:48:51;;;;;;;4.95;1.20;;;20.80;73.60;;;;;;5500345;25;20074;-61
2024/04/15 03:51:17;;;;;;;5.25;1.17;;;20.80;73.60;;;;;;5515787;25;20341;-61
2024/04/15 03:53:42;;;;;;;2.97;1.23;;;20.80;73.60;;;;;;5509635;25;19994;-61
2024/04/15 03:56:08;;;;;;;4.43;1.27;;;20.80;73.60;;;;;;5500833;26;20043;-61
2024/04/15 03:58:33;;;;;;;3.95;1.23;;;20.80;73.60;;;;;;5516084;25;20551;-61
2024/04/15 04:01:00;;;;;;;3.42;1.20;;;20.80;73.60;;;;;;5532825;25;20005;-61
2024/04/15 04:03:28;;;;;;;4.82;1.40;;;20.80;73.60;;;;;;5506380;26;20001;-60
2024/04/15 04:05:54;;;;;;;3.75;1.15;;;20.80;73.60;;;;;;5510177;25;19994;-61
2024/04/15 04:08:20;;;;;;;6.93;1.50;;;20.80;73.60;;;;;;5527253;25;19998;-62
2024/04/15 04:10:47;;;;;;;4.05;1.27;;;20.70;73.60;;;;;;5520999;25;20043;-61
2024/04/15 04:13:12;;;;;;;3.83;1.20;;;20.80;73.60;;;;;;5536440;25;20011;-61
2024/04/15 04:15:40;;;;;;;3.92;1.30;;;20.80;73.60;;;;;;5517375;25;20009;-61
2024/04/15 04:18:05;;;;;;;3.85;1.23;;;20.80;73.60;;;;;;5520113;25;20355;-61
2024/04/15 04:20:31;;;;;;;5.65;1.58;;;20.80;73.60;;;;;;5515826;25;19996;-60
2024/04/15 04:22:57;;;;;;;6.22;1.60;;;20.80;73.80;;;;;;5523158;25;19997;-60
2024/04/15 04:25:24;;;;;;;7.57;2.30;;;20.80;75.10;;;;;;5524006;25;20000;-61
2024/04/15 04:27:49;;;;;;;5.97;1.90;;;20.80;76.20;;;;;;5524722;25;20000;-61
2024/04/15 04:30:15;;;;;;;6.85;2.28;;;20.80;76.50;;;;;;5518488;25;19994;-60
2024/04/15 04:32:43;;;;;;;5.78;1.42;;;20.80;76.90;;;;;;5519451;25;20405;-60
2024/04/15 04:35:12;;;;;;;3.65;1.30;;;20.80;76.40;;;;;;5533897;25;20422;-61
2024/04/15 04:37:37;;;;;;;5.85;1.60;;;20.80;75.90;;;;;;5513190;25;20063;-60
2024/04/15 04:40:03;;;;;;;5.03;1.52;;;20.80;75.50;;;;;;5517669;25;20006;-61
2024/04/15 04:42:29;;;;;;;4.80;1.25;;;20.80;75.20;;;;;;5521553;25;19997;-60
2024/04/15 04:44:55;;;;;;;3.90;1.38;;;20.80;75.00;;;;;;5516219;25;20002;-60
2024/04/15 04:47:22;;;;;;;5.30;1.33;;;20.80;74.80;;;;;;5525610;25;20019;-60
2024/04/15 04:49:52;;;;;;;4.95;1.30;;;20.80;74.70;;;;;;5523106;25;20072;-61
2024/04/15 04:52:18;;;;;;;4.63;1.42;;;20.80;74.70;;;;;;5519277;25;20000;-60
2024/04/15 04:54:44;;;;;;;3.17;1.20;;;20.80;74.70;;;;;;5496207;26;20005;-61
2024/04/15 04:57:10;;;;;;;4.95;1.45;;;20.80;74.70;;;;;;5500990;25;20017;-60
2024/04/15 04:59:37;;;;;;;4.20;1.30;;;20.80;74.90;;;;;;5506546;25;19993;-60
2024/04/15 05:02:03;;;;;;;5.18;1.33;;;20.80;74.90;;;;;;5491484;25;20002;-60
2024/04/15 05:04:29;;;;;;;3.80;1.25;;;20.80;74.70;;;;;;5491802;26;19998;-60
2024/04/15 05:06:55;;;;;;;5.38;1.25;;;20.80;74.70;;;;;;5522643;25;19994;-60
2024/04/15 05:09:20;;;;;;;6.50;1.42;;;20.80;74.60;;;;;;5505137;25;20009;-60
2024/04/15 05:11:46;;;;;;;5.00;1.38;;;20.80;74.80;;;;;;5513371;25;20005;-60
2024/04/15 05:14:12;;;;;;;9.05;1.55;;;20.80;75.00;;;;;;5497175;25;20010;-60
2024/04/15 05:16:38;;;;;;;4.85;1.20;;;20.80;74.80;;;;;;5514166;25;19994;-60
2024/04/15 05:19:03;;;;;;;4.53;1.10;;;20.80;75.00;;;;;;5513446;25;20062;-60
2024/04/15 05:21:29;;;;;;;4.18;1.33;;;20.80;74.80;;;;;;5487768;26;20076;-60
2024/04/15 05:23:54;;;;;;;7.63;1.25;;;20.80;74.60;;;;;;5516522;25;20008;-60
2024/04/15 05:26:20;;;;;;;6.07;1.42;;;20.80;74.70;;;;;;5494339;25;20009;-61
2024/04/15 05:28:46;;;;;;;3.88;1.30;;;20.80;74.70;;;;;;5490423;26;19994;-61
2024/04/15 05:31:11;;;;;;;4.60;1.35;;;20.80;74.60;;;;;;5497256;26;19994;-60
2024/04/15 05:33:37;;;;;;;3.33;1.23;;;20.80;74.70;;;;;;5494548;26;20008;-60
2024/04/15 05:36:03;;;;;;;4.25;1.35;;;20.80;74.70;;;;;;5486273;26;20572;-60
2024/04/15 05:38:31;;;;;;;5.93;1.63;;;20.80;74.80;;;;;;5484047;26;20002;-60
2024/04/15 05:40:57;;;;;;;5.18;1.40;;;20.80;74.70;;;;;;5491018;26;20149;-60
2024/04/15 05:43:22;;;;;;;3.45;1.30;;;20.80;74.90;;;;;;5487008;26;20659;-60
2024/04/15 05:45:48;;;;;;;6.53;1.40;;;20.80;75.20;;;;;;5486401;26;20536;-60
2024/04/15 05:48:13;;;;;;;4.75;1.40;;;20.90;75.10;;;;;;5492647;26;20010;-61
2024/04/15 05:50:39;;;;;;;6.35;1.65;;;20.90;75.00;;;;;;5484303;26;20031;-60
2024/04/15 05:53:05;;;;;;;5.32;1.70;;;20.90;74.80;;;;;;5484086;26;19994;-60
2024/04/15 05:55:33;;;;;;;6.07;1.98;;;20.90;74.70;;;;;;5493177;26;20012;-60
2024/04/15 05:57:58;;;;;;;6.13;1.50;;;20.90;74.70;;;;;;5489335;26;20552;-60
2024/04/15 06:00:24;;;;;;;6.53;1.50;;;20.90;74.50;;;;;;5490483;26;20005;-60
2024/04/15 06:02:49;;;;;;;6.15;1.50;;;20.90;74.50;;;;;;5488909;26;20046;-60
2024/04/15 06:05:15;;;;;;;5.55;1.60;;;20.90;74.40;;;;;;5502398;26;20115;-59
2024/04/15 06:07:40;;;;;;;6.65;1.65;;;20.90;74.40;;;;;;5494422;26;19998;-59
2024/04/15 06:10:06;;;;;;;5.88;1.63;;;21.00;74.40;;;;;;5499045;26;20008;-60
2024/04/15 06:12:32;;;;;;;4.30;1.48;;;21.00;74.80;;;;;;5493937;26;20004;-60
2024/04/15 06:14:58;;;;;;;5.43;1.52;;;21.00;74.60;;;;;;5488763;26;20005;-60
2024/04/15 06:17:24;;;;;;;8.50;1.80;;;21.00;74.50;;;;;;5485844;26;19998;-60
2024/04/15 06:19:50;;;;;;;4.95;1.48;;;21.00;74.40;;;;;;5493404;26;20004;-60
2024/04/15 06:22:18;;;;;;;6.28;1.48;;;21.00;74.40;;;;;;5491136;26;19990;-60
2024/04/15 06:24:45;;;;;;;5.88;1.80;;;21.00;74.30;;;;;;5497217;26;20000;-60
2024/04/15 06:27:13;;;;;;;9.68;1.80;;;20.90;74.20;;;;;;5496213;26;20014;-60
2024/04/15 06:29:39;;;;;;;5.60;1.52;;;21.00;74.20;;;;;;5492670;26;20029;-60
2024/04/15 06:32:05;;;;;;;6.20;1.55;;;20.90;74.10;;;;;;5511487;25;20038;-60
2024/04/15 06:34:31;;;;;;;6.68;1.65;;;20.90;74.00;;;;;;5522580;25;20001;-60
2024/04/15 06:36:57;;;;;;;6.43;1.50;;;20.90;74.00;;;;;;5500380;26;20817;-60
2024/04/15 06:39:23;;;;;;;6.70;1.63;;;20.90;74.00;;;;;;5496434;26;20139;-60
2024/04/15 06:41:49;;;;;;;5.68;1.52;;;20.90;74.00;;;;;;5498497;26;20006;-60
2024/04/15 06:44:15;;;;;;;4.32;1.40;;;20.90;74.00;;;;;;5496477;26;20043;-60
2024/04/15 06:46:41;;;;;;;7.18;1.65;;;20.90;74.00;;;;;;5496554;26;20012;-60
2024/04/15 06:49:09;;;;;;;5.07;1.40;;;20.90;74.00;;;;;;5500680;26;19994;-60
2024/04/15 06:51:37;;;;;;;4.13;1.40;;;20.90;74.00;;;;;;5493113;26;20349;-60
2024/04/15 06:54:03;;;;;;;9.30;1.80;;;20.90;73.90;;;;;;5494711;26;20387;-60
2024/04/15 06:56:29;;;;;;;5.68;1.60;;;20.90;73.90;;;;;;5505061;25;19997;-60
2024/04/15 06:58:55;;;;;;;4.32;1.50;;;20.90;73.90;;;;;;5499331;26;20002;-60
2024/04/15 07:01:20;;;;;;;4.75;1.50;;;20.90;73.90;;;;;;5504028;26;20349;-60
2024/04/15 07:03:46;;;;;;;4.85;1.50;;;20.90;73.80;;;;;;5501152;26;19997;-60
2024/04/15 07:06:11;;;;;;;5.72;1.50;;;20.90;73.80;;;;;;5502245;26;20002;-60
2024/04/15 07:08:40;;;;;;;3.67;1.35;;;20.90;73.80;;;;;;5504313;26;20009;-60
2024/04/15 07:11:06;;;;;;;4.30;1.40;;;20.90;73.70;;;;;;5501577;26;19998;-60
2024/04/15 07:13:31;;;;;;;5.28;1.52;;;20.90;73.70;;;;;;5505962;26;20175;-60
2024/04/15 07:15:57;;;;;;;4.53;1.40;;;20.90;73.70;;;;;;5501738;26;19998;-61
2024/04/15 07:18:23;;;;;;;7.60;1.70;;;20.90;73.70;;;;;;5512223;26;20013;-61
2024/04/15 07:20:49;;;;;;;4.15;1.40;;;20.90;73.60;;;;;;5506498;26;20345;-61
2024/04/15 07:23:14;;;;;;;5.22;1.73;;;20.80;73.60;;;;;;5501556;26;20002;-61
2024/04/15 07:25:40;;;;;;;5.05;1.50;;;20.90;73.50;;;;;;5511775;26;19994;-61
2024/04/15 07:28:05;;;;;;;4.40;1.45;;;20.80;73.40;;;;;;5508844;26;19998;-61
2024/04/15 07:30:31;;;;;;;5.72;1.70;;;20.80;73.40;;;;;;5505073;26;20002;-61
2024/04/15 07:32:57;;;;;;;5.15;1.67;;;20.80;73.30;;;;;;5502724;26;20008;-60
2024/04/15 07:35:22;;;;;;;4.50;1.27;;;20.80;73.30;;;;;;5509389;26;20077;-61
2024/04/15 07:37:48;;;;;;;5.22;1.63;;;20.80;73.20;;;;;;5508863;26;19998;-61
2024/04/15 07:40:14;;;;;;;4.68;1.45;;;20.80;73.20;;;;;;5510833;26;20009;-61
2024/04/15 07:42:43;;;;;;;4.97;1.63;;;20.80;73.20;;;;;;5507946;26;20001;-61
2024/04/15 07:45:08;;;;;;;4.35;1.40;;;20.80;73.10;;;;;;5508176;26;20353;-61
2024/04/15 07:47:34;;;;;;;5.88;1.45;;;20.80;73.10;;;;;;5505880;26;20006;-61
2024/04/15 07:49:59;;;;;;;5.32;1.50;;;20.80;73.10;;;;;;5508767;26;19993;-61
2024/04/15 07:52:25;;;;;;;3.40;1.45;;;20.80;73.10;;;;;;5499535;26;19993;-61
2024/04/15 07:54:51;;;;;;;4.32;1.50;;;20.80;73.10;;;;;;5502224;26;20026;-61
2024/04/15 07:57:17;;;;;;;4.38;1.33;;;20.70;73.00;;;;;;5509266;26;20522;-61
2024/04/15 07:59:43;;;;;;;4.68;1.30;;;20.70;73.00;;;;;;5504379;26;20010;-61
2024/04/15 08:02:11;;;;;;;4.80;1.50;;;20.70;73.00;;;;;;5505485;26;20053;-61
2024/04/15 08:04:36;;;;;;;4.65;1.40;;;20.70;73.10;;;;;;5506774;26;20069;-61
2024/04/15 08:07:02;;;;;;;4.68;1.63;;;20.70;73.10;;;;;;5503850;26;20010;-61
2024/04/15 08:09:29;;;;;;;4.10;1.50;;;20.70;73.00;;;;;;5509608;26;19997;-61
2024/04/15 08:11:55;;;;;;;6.20;1.67;;;20.70;73.10;;;;;;5509032;26;20465;-61
2024/04/15 08:14:22;;;;;;;5.72;1.55;;;20.70;73.20;;;;;;5516646;26;20002;-61
2024/04/15 08:16:50;;;;;;;6.43;1.70;;;20.70;73.10;;;;;;5508270;26;20428;-60
2024/04/15 08:19:16;;;;;;;6.25;1.70;;;20.70;73.10;;;;;;5509395;26;20659;-61
2024/04/15 08:21:41;;;;;;;6.88;1.60;;;20.70;73.00;;;;;;5499400;26;19998;-61
2024/04/15 08:24:07;;;;;;;4.68;1.35;;;20.70;73.10;;;;;;5502759;26;20001;-61
2024/04/15 08:26:32;;;;;;;4.80;1.60;;;20.70;73.00;;;;;;5500954;26;20002;-59
2024/04/15 08:29:02;;;;;;;5.10;1.60;;;20.70;73.00;;;;;;5503986;26;19997;-60
2024/04/15 08:31:30;;;;;;;;;;;20.70;73.00;;;;;;5500428;26;20030;-60
2024/04/15 08:33:56;;;;;;;5.53;1.50;;;20.70;73.00;;;;;;5504047;26;19959;-59
2024/04/15 08:36:21;;;;;;;4.40;1.38;;;20.70;72.90;;;;;;5506029;26;20001;-60
2024/04/15 08:38:47;;;;;;;4.70;1.25;;;20.70;72.90;;;;;;5499135;26;20005;-59
2024/04/15 08:41:33;;;;;;;4.30;1.52;;;20.70;72.90;;;;;;5503376;26;20009;-59
2024/04/15 08:44:03;;;;;;;6.82;1.50;;;20.70;72.80;;;;;;5510436;26;20001;-59
2024/04/15 08:46:43;;;;;;;4.90;1.40;;;20.70;72.80;;;;;;5500585;26;20729;-60
2024/04/15 08:49:09;;;;;;;6.37;1.70;;;20.70;72.80;;;;;;5500956;26;19998;-59
2024/04/15 08:51:35;;;;;;;6.88;1.38;;;20.70;72.70;;;;;;5496149;26;20511;-60
2024/04/15 08:54:01;;;;;;;4.47;1.40;;;20.70;72.80;;;;;;5499831;26;20010;-59
2024/04/15 08:56:30;;;;;;;3.63;1.30;;;20.70;72.70;;;;;;5504948;26;19993;-59
2024/04/15 08:58:58;;;;;;;4.45;1.50;;;20.70;72.70;;;;;;5504010;26;20108;-59
2024/04/15 09:01:26;;;;;;;4.78;1.35;;;20.70;72.70;;;;;;5500129;26;19998;-59
2024/04/15 09:03:51;;;;;;;5.05;1.30;;;20.70;72.70;;;;;;5504392;26;20344;-59
2024/04/15 09:06:20;;;;;;;5.32;1.60;;;20.70;72.70;;;;;;5505054;26;20066;-59
2024/04/15 09:08:46;;;;;;;5.22;1.42;;;20.70;72.70;;;;;;5499327;26;19998;-60
2024/04/15 09:11:15;;;;;;;6.35;1.50;;;20.70;72.70;;;;;;5506415;26;19994;-59
2024/04/15 09:13:40;;;;;;;4.50;1.40;;;20.70;72.60;;;;;;5504061;26;20005;-59
2024/04/15 09:16:08;;;;;;;4.50;1.40;;;20.70;72.60;;;;;;5500872;26;20022;-60
2024/04/15 09:18:34;;;;;;;5.70;1.58;;;20.70;72.70;;;;;;5502030;26;20017;-59
2024/04/15 09:21:03;;;;;;;4.28;1.45;;;20.70;72.70;;;;;;5501216;26;20344;-60
2024/04/15 09:23:29;;;;;;;4.43;1.40;;;20.70;72.70;;;;;;5492785;26;20001;-60
2024/04/15 09:25:54;;;;;;;4.82;1.45;;;20.70;72.60;;;;;;5498385;26;20231;-59
2024/04/15 09:28:20;;;;;;;5.70;1.50;;;20.70;72.60;;;;;;5505936;26;20009;-59
2024/04/15 09:30:46;;;;;;;5.32;1.48;;;20.70;72.70;;;;;;5498221;26;20005;-59
2024/04/15 09:33:13;;;;;;;5.28;1.45;;;20.70;72.70;;;;;;5501511;26;19993;-59
2024/04/15 09:35:39;;;;;;;5.53;1.38;;;20.70;72.70;;;;;;5503568;26;20008;-59
2024/04/15 09:38:14;;;;;;;5.88;1.50;;;20.70;72.60;;;;;;5502568;26;20017;-59
2024/04/15 09:40:44;;;;;;;5.07;1.30;;;20.70;72.50;;;;;;5497908;26;20078;-60
2024/04/15 09:43:10;;;;;;;3.28;1.20;;;20.70;72.50;;;;;;5501864;26;20341;-60
2024/04/15 09:45:36;;;;;;;6.05;1.73;;;20.70;72.40;;;;;;5500640;26;19997;-60
2024/04/15 09:48:02;;;;;;;6.13;1.50;;;20.70;72.40;;;;;;5499238;26;20002;-60
2024/04/15 09:50:28;;;;;;;4.68;1.30;;;20.70;72.30;;;;;;5500670;26;19993;-60
2024/04/15 09:52:58;;;;;;;4.43;1.30;;;20.70;72.40;;;;;;5488855;26;20008;-60
2024/04/15 09:55:32;;;;;;;4.43;1.25;;;20.70;72.40;;;;;;5501701;25;20001;-60
2024/04/15 09:58:01;;;;;;;4.50;1.40;;;20.70;72.40;;;;;;5503312;26;19997;-60
2024/04/15 10:00:28;;;;;;;4.78;1.45;;;20.70;72.30;;;;;;5497752;26;19994;-60
2024/04/15 10:03:07;;;;;;;5.35;1.33;;;20.60;72.10;;;;;;5499376;26;19997;-60
2024/04/15 10:05:39;;;;;;;4.88;1.42;;;20.70;72.30;;;;;;5499867;26;20006;-60
2024/04/15 10:08:08;;;;;;;4.72;1.38;;;20.60;72.30;;;;;;5496832;26;20322;-60
2024/04/15 10:10:41;;;;;;;5.18;1.33;;;20.60;72.20;;;;;;5505358;26;19998;-60
2024/04/15 10:13:07;;;;;;;3.88;1.27;;;20.70;72.30;;;;;;5493801;26;20012;-60
2024/04/15 10:15:33;;;;;;;3.88;1.63;;;20.70;72.20;;;;;;5499413;26;20017;-60
2024/04/15 10:18:03;;;;;;;3.28;1.20;;;20.60;72.10;;;;;;5498823;26;20813;-60
2024/04/15 10:20:30;;;;;;;4.28;1.20;;;20.60;71.90;;;;;;5498670;26;20465;-60
2024/04/15 10:23:00;;;;;;;4.68;1.30;;;20.60;72.00;;;;;;5490883;26;20002;-59
2024/04/15 10:25:26;;;;;;;;;;;20.60;72.00;;;;;;5500590;26;20033;-60
2024/04/15 10:27:52;;;;;;;5.10;1.30;;;20.60;72.00;;;;;;5497274;26;19990;-59
2024/04/15 10:30:18;;;;;;;5.35;1.38;;;20.60;72.00;;;;;;5502321;26;20472;-60
2024/04/15 10:32:47;;;;;;;3.75;1.10;;;20.60;72.10;;;;;;5499537;26;19997;-60
2024/04/15 10:35:21;;;;;;;4.68;1.30;;;20.60;72.00;;;;;;5498411;26;20340;-59
2024/04/15 10:37:50;;;;;;;3.38;1.02;;;20.60;71.80;;;;;;5505592;26;20006;-59
2024/04/15 10:40:19;;;;;;;5.30;1.20;;;20.60;71.80;;;;;;5505377;26;20050;-60
2024/04/15 10:42:45;;;;;;;3.67;1.20;;;20.60;71.60;;;;;;5500525;26;20050;-60
2024/04/15 10:45:19;;;;;;;4.30;1.20;;;20.60;71.40;;;;;;5498114;26;20005;-60
2024/04/15 10:47:48;;;;;;;3.65;1.25;;;20.60;71.60;;;;;;5505698;26;20453;-60
2024/04/15 10:50:14;;;;;;;4.22;1.20;;;20.60;71.40;;;;;;5504962;26;20026;-60
2024/04/15 10:52:42;;;;;;;3.88;1.33;;;20.60;71.20;;;;;;5489668;26;19994;-60
2024/04/15 10:55:09;;;;;;;4.13;1.40;;;20.60;71.20;;;;;;5491503;26;20002;-60
2024/04/15 10:57:34;;;;;;;3.58;1.20;;;20.60;71.30;;;;;;5507893;26;20068;-60
2024/04/15 11:00:00;;;;;;;3.05;1.20;;;20.60;71.40;;;;;;5502699;26;20427;-60
2024/04/15 11:02:26;;;;;;;4.35;1.17;;;20.60;71.20;;;;;;5502807;26;20121;-60
2024/04/15 11:04:51;;;;;;;5.28;1.20;;;20.60;71.20;;;;;;5502844;26;20066;-60
2024/04/15 11:07:17;;;;;;;3.97;1.10;;;20.60;71.20;;;;;;5499295;26;20343;-60
2024/04/15 11:09:45;;;;;;;4.95;1.33;;;20.60;71.10;;;;;;5508259;26;20002;-60
2024/04/15 11:12:11;;;;;;;4.90;1.20;;;20.60;71.20;;;;;;5497938;26;19998;-59
2024/04/15 11:14:36;;;;;;;5.60;1.30;;;20.60;71.20;;;;;;5504669;26;20004;-59
2024/04/15 11:17:04;;;;;;;4.55;1.38;;;20.60;71.00;;;;;;5499625;26;20656;-59
2024/04/15 11:19:30;;;;;;;7.00;1.38;;;20.60;70.90;;;;;;5503016;26;20010;-59
2024/04/15 11:22:06;;;;;;;4.40;1.15;;;20.60;70.90;;;;;;5496569;26;20005;-59
2024/04/15 11:24:33;;;;;;;3.85;1.30;;;20.60;70.90;;;;;;5503412;26;20100;-59
2024/04/15 11:26:59;;;;;;;4.82;1.30;;;20.60;70.80;;;;;;5498833;26;20013;-59
2024/04/15 11:29:25;;;;;;;3.55;1.10;;;20.60;70.80;;;;;;5500486;26;20591;-59
2024/04/15 11:31:51;;;;;;;4.03;1.23;;;20.60;70.90;;;;;;5500338;26;20069;-59
2024/04/15 11:34:16;;;;;;;3.78;1.23;;;20.60;70.10;;;;;;5499086;26;20009;-59
2024/04/15 11:36:45;;;;;;;6.97;1.52;;;20.60;70.20;;;;;;5503908;26;20002;-59
2024/04/15 11:39:14;;;;;;;4.72;1.30;;;20.60;69.80;;;;;;5503458;26;20397;-59
2024/04/15 11:41:39;;;;;;;7.22;1.35;;;20.50;69.70;;;;;;5498146;26;20010;-59
2024/04/15 11:44:05;;;;;;;5.25;1.30;;;20.50;69.50;;;;;;5502330;26;20069;-59
2024/04/15 11:46:31;;;;;;;3.78;1.10;;;20.60;69.60;;;;;;5499041;26;20453;-59
2024/04/15 11:48:56;;;;;;;4.60;1.38;;;20.60;69.70;;;;;;5500635;26;19998;-59
2024/04/15 11:51:22;;;;;;;5.68;1.42;;;20.60;69.80;;;;;;5498409;26;20016;-59
2024/04/15 11:53:48;;;;;;;2.80;1.00;;;20.60;70.00;;;;;;5491070;26;20022;-59
2024/04/15 11:56:14;;;;;;;3.58;1.20;;;20.60;69.70;;;;;;5504776;26;19994;-60
2024/04/15 11:58:44;;;;;;;3.20;1.10;;;20.60;69.90;;;;;;5508781;26;20012;-60
2024/04/15 12:01:11;;;;;;;3.88;1.20;;;20.60;69.80;;;;;;5504633;26;19994;-60
2024/04/15 12:03:36;;;;;;;6.68;1.20;;;20.60;69.80;;;;;;5506061;26;20009;-59
2024/04/15 12:06:05;;;;;;;7.82;1.20;;;20.60;69.40;;;;;;5504857;26;19995;-60
2024/04/15 12:08:33;;;;;;;4.47;1.17;;;20.60;69.50;;;;;;5510954;26;20002;-60
2024/04/15 12:10:59;;;;;;;3.75;1.20;;;20.60;69.40;;;;;;5506859;26;19998;-60
2024/04/15 12:13:25;;;;;;;4.10;1.00;;;20.60;69.40;;;;;;5513645;26;20062;-60
2024/04/15 12:15:53;;;;;;;3.28;1.02;;;20.60;69.30;;;;;;5506980;26;20762;-59
2024/04/15 12:18:18;;;;;;;2.97;1.00;;;20.60;69.60;;;;;;5509317;26;20029;-60
2024/04/15 12:20:44;;;;;;;4.43;1.02;;;20.60;69.30;;;;;;5508882;26;20009;-59
2024/04/15 12:23:10;;;;;;;4.75;1.00;;;20.60;69.40;;;;;;5499572;26;20393;-60
2024/04/15 12:25:35;;;;;;;4.10;1.02;;;20.60;69.10;;;;;;5502683;26;20043;-60
2024/04/15 12:28:01;;;;;;;3.97;1.02;;;20.60;69.00;;;;;;5509946;26;20049;-59
2024/04/15 12:30:26;;;;;;;3.72;1.23;;;20.60;69.10;;;;;;5505229;26;20013;-60
2024/04/15 12:32:56;;;;;;;4.13;1.00;;;20.60;68.90;;;;;;5508799;26;19998;-59
2024/04/15 12:35:25;;;;;;;3.80;1.15;;;20.70;69.00;;;;;;5511291;26;19997;-60
2024/04/15 12:37:54;;;;;;;4.38;1.10;;;20.70;69.20;;;;;;5507269;26;19998;-60
2024/04/15 12:40:20;;;;;;;5.28;1.13;;;20.60;69.00;;;;;;5504688;26;20448;-60
2024/04/15 12:42:45;;;;;;;4.05;1.05;;;20.70;68.60;;;;;;5512246;26;20074;-59
2024/04/15 12:45:11;;;;;;;5.13;1.00;;;20.60;68.60;;;;;;5509648;26;19997;-60